createdAt,value
2018-05-11T00:00:14.366Z,9.17
2018-05-11T00:02:44.173Z,9.80
2018-05-11T00:05:14.726Z,9.60
2018-05-11T00:07:44.523Z,9.80
2018-05-11T00:10:14.260Z,10.80
2018-05-11T00:12:43.995Z,9.87
2018-05-11T00:15:13.755Z,10.00
2018-05-11T00:17:44.287Z,10.20
2018-05-11T00:20:14.042Z,10.50
2018-05-11T00:22:43.791Z,10.30
2018-05-11T00:25:14.335Z,9.73
2018-05-11T00:27:44.084Z,9.93
2018-05-11T00:30:13.852Z,10.10
2018-05-11T00:32:43.599Z,9.57
2018-05-11T00:35:13.397Z,9.30
2018-05-11T00:37:43.317Z,11.40
2018-05-11T00:40:13.068Z,11.07
2018-05-11T00:42:42.814Z,11.23
2018-05-11T00:45:12.602Z,11.20
2018-05-11T00:47:43.098Z,11.27
2018-05-11T00:50:13.670Z,12.73
2018-05-11T00:52:44.217Z,13.63
2018-05-11T00:55:24.962Z,12.97
2018-05-11T00:57:56.243Z,13.40
2018-05-11T01:00:26.013Z,13.47
2018-05-11T01:02:56.764Z,16.80
2018-05-11T01:05:27.282Z,16.13
2018-05-11T01:07:57.788Z,15.70
2018-05-11T01:10:27.571Z,13.87
2018-05-11T01:12:57.333Z,16.27
2018-05-11T01:15:28.169Z,17.07
2018-05-11T01:17:58.673Z,18.37
2018-05-11T01:20:28.441Z,17.30
2018-05-11T01:22:58.237Z,16.27
2018-05-11T01:25:28.037Z,17.00
2018-05-11T01:27:58.554Z,16.47
2018-05-11T01:30:29.216Z,16.50
2018-05-11T01:32:58.973Z,16.13
2018-05-11T01:35:28.747Z,16.63
2018-05-11T01:37:58.524Z,16.87
2018-05-11T01:40:29.038Z,17.73
2018-05-11T01:42:58.799Z,18.57
2018-05-11T01:45:28.583Z,15.03
2018-05-11T01:47:59.083Z,17.87
2018-05-11T01:50:29.685Z,16.20
2018-05-11T01:52:59.428Z,17.10
2018-05-11T01:55:29.182Z,15.10
2018-05-11T01:57:58.943Z,15.70
2018-05-11T02:00:28.723Z,17.90
2018-05-11T02:02:58.439Z,19.73
2018-05-11T02:05:28.256Z,21.43
2018-05-11T02:07:58.018Z,17.70
2018-05-11T02:10:28.587Z,19.50
2018-05-11T02:12:58.347Z,20.90
2018-05-11T02:15:28.878Z,19.30
2018-05-11T02:17:59.415Z,21.20
2018-05-11T02:20:29.916Z,18.43
2018-05-11T02:22:59.652Z,18.20
2018-05-11T02:25:30.176Z,18.50
2018-05-11T02:28:00.693Z,19.23
2018-05-11T02:30:36.026Z,17.83
2018-05-11T02:33:06.554Z,17.67
2018-05-11T02:35:36.316Z,19.53
2018-05-11T02:38:06.097Z,20.23
2018-05-11T02:40:36.600Z,20.17
2018-05-11T02:43:06.369Z,18.33
2018-05-11T02:45:36.151Z,19.43
2018-05-11T02:48:06.804Z,18.50
2018-05-11T02:50:36.687Z,18.53
2018-05-11T02:53:07.259Z,18.47
2018-05-11T02:55:37.055Z,15.77
2018-05-11T02:58:06.827Z,17.17
2018-05-11T03:00:36.579Z,14.80
2018-05-11T03:03:06.346Z,15.47
2018-05-11T03:05:36.103Z,16.53
2018-05-11T03:08:05.908Z,13.10
2018-05-11T03:10:35.715Z,13.07
2018-05-11T03:13:06.356Z,13.50
2018-05-11T03:15:36.121Z,14.20
2018-05-11T03:18:05.856Z,12.93
2018-05-11T03:20:36.416Z,15.90
2018-05-11T03:23:06.343Z,15.97
2018-05-11T03:25:36.096Z,16.00
2018-05-11T03:28:05.937Z,16.77
2018-05-11T03:30:35.871Z,16.90
2018-05-11T03:33:05.650Z,17.10
2018-05-11T03:35:36.191Z,16.87
2018-05-11T03:38:05.962Z,18.27
2018-05-11T03:40:38.707Z,19.70
2018-05-11T03:45:44.128Z,19.77
2018-05-11T03:48:15.157Z,19.37
2018-05-11T03:50:48.409Z,17.87
2018-05-11T04:01:24.479Z,19.50
2018-05-11T04:04:05.702Z,19.23
2018-05-11T04:06:48.004Z,16.93
2018-05-11T04:11:51.302Z,17.60
2018-05-11T04:14:21.733Z,17.97
2018-05-11T04:16:51.551Z,18.50
2018-05-11T04:19:21.354Z,18.90
2018-05-11T04:21:51.171Z,18.33
2018-05-11T04:24:20.950Z,19.27
2018-05-11T04:26:51.579Z,19.03
2018-05-11T04:29:21.367Z,17.80
2018-05-11T04:31:51.131Z,20.67
2018-05-11T04:34:20.905Z,18.27
2018-05-11T04:36:51.451Z,19.40
2018-05-11T04:39:21.265Z,19.63
2018-05-11T04:41:51.060Z,20.00
2018-05-11T04:44:21.591Z,18.70
2018-05-11T04:46:52.191Z,18.30
2018-05-11T04:49:21.962Z,18.57
2018-05-11T04:51:51.753Z,18.63
2018-05-11T04:54:21.571Z,20.50
2018-05-11T04:56:51.368Z,19.50
2018-05-11T04:59:21.923Z,18.43
2018-05-11T05:01:51.742Z,20.47
2018-05-11T05:04:21.722Z,16.73
2018-05-11T05:06:52.848Z,17.30
2018-05-11T05:09:22.601Z,15.60
2018-05-11T05:11:52.382Z,17.40
2018-05-11T05:14:22.902Z,16.07
2018-05-11T05:16:52.726Z,16.77
2018-05-11T05:19:23.386Z,16.03
2018-05-11T05:21:53.303Z,15.20
2018-05-11T05:24:23.095Z,15.10
2018-05-11T05:26:53.699Z,15.30
2018-05-11T05:29:23.503Z,15.67
2018-05-11T05:31:54.043Z,15.33
2018-05-11T05:34:24.566Z,15.77
2018-05-11T05:36:54.340Z,15.53
2018-05-11T05:39:24.150Z,16.30
2018-05-11T05:41:53.945Z,13.67
2018-05-11T05:44:23.731Z,15.43
2018-05-11T05:46:53.573Z,14.70
2018-05-11T05:49:23.359Z,15.90
2018-05-11T05:51:53.919Z,16.73
2018-05-11T05:54:23.656Z,15.73
2018-05-11T05:56:53.414Z,13.97
2018-05-11T05:59:23.991Z,14.30
2018-05-11T06:01:53.787Z,15.13
2018-05-11T06:04:23.563Z,14.73
2018-05-11T06:06:54.124Z,16.20
2018-05-11T06:09:23.924Z,17.40
2018-05-11T06:11:53.695Z,14.73
2018-05-11T06:14:23.467Z,14.53
2018-05-11T06:16:53.187Z,16.83
2018-05-11T06:19:22.949Z,15.17
2018-05-11T06:21:54.271Z,15.03
2018-05-11T06:24:24.008Z,16.23
2018-05-11T06:26:54.526Z,17.33
2018-05-11T06:29:25.065Z,14.97
2018-05-11T06:31:54.822Z,13.57
2018-05-11T06:34:24.615Z,13.80
2018-05-11T06:36:54.394Z,14.80
2018-05-11T06:39:24.224Z,15.10
2018-05-11T06:41:53.994Z,15.60
2018-05-11T06:44:23.896Z,14.07
2018-05-11T06:46:53.952Z,14.47
2018-05-11T06:49:23.700Z,14.10
2018-05-11T06:51:53.447Z,14.10
2018-05-11T06:54:23.223Z,13.17
2018-05-11T06:56:53.965Z,13.70
2018-05-11T06:59:23.750Z,14.20
2018-05-11T07:01:53.578Z,12.83
2018-05-11T07:04:23.332Z,13.70
2018-05-11T07:06:53.042Z,13.30
2018-05-11T07:09:22.826Z,12.83
2018-05-11T07:11:52.580Z,13.20
2018-05-11T07:14:24.186Z,11.00
2018-05-11T07:16:53.982Z,10.90
2018-05-11T07:19:23.740Z,11.23
2018-05-11T07:21:53.469Z,10.77
2018-05-11T07:24:24.035Z,10.77
2018-05-11T07:26:53.822Z,10.87
2018-05-11T07:29:24.458Z,10.40
2018-05-11T07:31:54.226Z,9.47
2018-05-11T07:34:24.096Z,10.40
2018-05-11T07:36:53.911Z,9.10
2018-05-11T07:39:23.674Z,12.00
2018-05-11T07:41:53.486Z,11.30
2018-05-11T07:44:23.236Z,10.90
2018-05-11T07:46:52.997Z,10.57
2018-05-11T07:49:22.762Z,10.50
2018-05-11T07:51:52.543Z,10.37
2018-05-11T07:54:23.039Z,9.90
2018-05-11T07:56:52.888Z,11.03
2018-05-11T07:59:23.443Z,11.53
2018-05-11T08:01:53.230Z,10.80
2018-05-11T08:04:23.767Z,11.03
2018-05-11T08:06:53.535Z,10.40
2018-05-11T08:09:23.313Z,10.70
2018-05-11T08:11:53.100Z,10.80
2018-05-11T08:14:22.879Z,11.50
2018-05-11T08:16:52.767Z,11.80
2018-05-11T08:19:24.937Z,11.43
2018-05-11T08:21:54.707Z,12.10
2018-05-11T08:24:24.452Z,11.60
2018-05-11T08:26:54.306Z,12.50
2018-05-11T08:29:24.960Z,12.73
2018-05-11T08:31:54.684Z,11.23
2018-05-11T08:34:24.434Z,10.53
2018-05-11T08:36:54.199Z,10.33
2018-05-11T08:39:24.810Z,11.80
2018-05-11T08:41:55.327Z,12.30
2018-05-11T08:44:25.939Z,11.30
2018-05-11T08:46:55.705Z,11.27
2018-05-11T08:49:25.470Z,11.40
2018-05-11T08:51:55.301Z,11.13
2018-05-11T08:54:25.858Z,11.17
2018-05-11T08:56:55.650Z,12.20
2018-05-11T08:59:26.324Z,12.20
2018-05-11T09:01:56.167Z,12.07
2018-05-11T09:04:25.944Z,11.13
2018-05-11T09:06:55.693Z,11.27
2018-05-11T09:09:25.438Z,12.37
2018-05-11T09:11:55.201Z,11.13
2018-05-11T09:14:24.929Z,10.87
2018-05-11T09:16:54.701Z,10.97
2018-05-11T09:19:24.538Z,11.63
2018-05-11T09:21:54.268Z,11.37
2018-05-11T09:24:24.020Z,11.70
2018-05-11T09:26:53.805Z,10.40
2018-05-11T09:29:24.325Z,11.13
2018-05-11T09:31:54.955Z,11.53
2018-05-11T09:34:25.468Z,14.03
2018-05-11T09:36:55.205Z,15.43
2018-05-11T09:39:26.949Z,15.37
2018-05-11T09:41:57.509Z,14.13
2018-05-11T09:44:27.258Z,11.63
2018-05-11T09:46:57.016Z,12.40
2018-05-11T09:49:27.562Z,11.63
2018-05-11T09:51:57.450Z,12.60
2018-05-11T09:54:27.198Z,14.50
2018-05-11T09:56:56.959Z,15.83
2018-05-11T09:59:26.711Z,14.57
2018-05-11T10:01:56.521Z,12.97
2018-05-11T10:04:26.296Z,14.13
2018-05-11T10:06:56.062Z,16.10
2018-05-11T10:09:25.835Z,16.37
2018-05-11T10:11:56.367Z,15.00
2018-05-11T10:14:26.893Z,14.20
2018-05-11T10:16:57.400Z,14.87
2018-05-11T10:19:27.167Z,15.83
2018-05-11T10:21:56.940Z,13.97
2018-05-11T10:24:27.931Z,14.60
2018-05-11T10:26:57.668Z,14.47
2018-05-11T10:29:27.425Z,16.30
2018-05-11T10:31:57.149Z,18.03
2018-05-11T10:34:27.104Z,17.50
2018-05-11T10:36:56.867Z,16.40
2018-05-11T10:39:26.642Z,15.53
2018-05-11T10:41:57.197Z,15.93
2018-05-11T10:44:27.023Z,16.33
2018-05-11T10:46:56.833Z,14.00
2018-05-11T10:49:26.662Z,15.80
2018-05-11T10:51:56.460Z,14.80
2018-05-11T10:54:26.290Z,16.00
2018-05-11T10:56:58.107Z,15.43
2018-05-11T10:59:28.948Z,14.33
2018-05-11T11:01:58.729Z,15.80
2018-05-11T11:04:28.582Z,14.80
2018-05-11T11:06:58.358Z,15.30
2018-05-11T11:09:28.186Z,15.37
2018-05-11T11:11:58.536Z,14.57
2018-05-11T11:14:28.365Z,15.30
2018-05-11T11:16:58.136Z,14.50
2018-05-11T11:19:29.564Z,15.63
2018-05-11T11:22:00.135Z,15.77
2018-05-11T11:24:29.900Z,15.40
2018-05-11T11:26:59.659Z,14.70
2018-05-11T11:29:29.423Z,15.77
2018-05-11T11:31:59.212Z,14.77
2018-05-11T11:34:29.026Z,13.63
2018-05-11T11:36:58.876Z,14.60
2018-05-11T11:39:29.426Z,14.20
2018-05-11T11:41:59.192Z,15.73
2018-05-11T11:44:28.996Z,15.77
2018-05-11T11:46:58.765Z,16.00
2018-05-11T11:49:28.622Z,15.70
2018-05-11T11:51:59.183Z,15.93
2018-05-11T11:54:30.701Z,15.43
2018-05-11T11:57:00.463Z,15.70
2018-05-11T11:59:30.219Z,15.60
2018-05-11T12:02:00.078Z,16.17
2018-05-11T12:04:30.191Z,16.77
2018-05-11T12:07:00.727Z,16.30
2018-05-11T12:09:31.292Z,16.40
2018-05-11T12:12:01.101Z,16.50
2018-05-11T12:14:30.839Z,16.60
2018-05-11T12:17:00.600Z,18.03
2018-05-11T12:19:30.367Z,17.20
2018-05-11T12:22:00.113Z,17.27
2018-05-11T12:24:29.883Z,17.50
2018-05-11T12:26:59.656Z,17.27
2018-05-11T12:29:30.251Z,17.60
2018-05-11T12:32:00.785Z,17.30
2018-05-11T12:34:31.332Z,16.07
2018-05-11T12:37:01.190Z,16.23
2018-05-11T12:39:30.973Z,17.53
2018-05-11T12:42:00.729Z,17.90
2018-05-11T12:44:30.504Z,17.30
2018-05-11T12:47:00.342Z,16.10
2018-05-11T12:49:30.109Z,16.17
2018-05-11T12:52:00.901Z,16.60
2018-05-11T12:54:30.647Z,16.20
2018-05-11T12:57:00.372Z,16.53
2018-05-11T12:59:30.133Z,16.00
2018-05-11T13:01:59.899Z,14.80
2018-05-11T13:04:29.639Z,15.63
2018-05-11T13:06:59.396Z,15.17
2018-05-11T13:09:29.177Z,14.93
2018-05-11T13:11:59.918Z,15.10
2018-05-11T13:14:30.484Z,15.30
2018-05-11T13:17:00.265Z,14.93
2018-05-11T13:19:30.831Z,15.13
2018-05-11T13:22:00.805Z,15.60
2018-05-11T13:24:30.563Z,14.27
2018-05-11T13:27:00.323Z,14.53
2018-05-11T13:29:30.127Z,13.93
2018-05-11T13:31:59.890Z,15.10
2018-05-11T13:34:29.642Z,12.73
2018-05-11T13:36:59.413Z,14.10
2018-05-11T13:39:29.196Z,14.53
2018-05-11T13:41:59.792Z,15.20
2018-05-11T13:47:05.019Z,14.70
2018-05-11T13:49:34.993Z,14.50
2018-05-11T13:52:05.583Z,14.53
2018-05-11T13:54:36.486Z,15.33
2018-05-11T15:37:43.982Z,19.20
2018-05-11T15:40:14.330Z,18.77
2018-05-11T15:42:44.130Z,21.10
2018-05-11T15:45:13.899Z,20.47
2018-05-11T15:47:44.503Z,19.47
2018-05-11T15:50:14.270Z,19.33
2018-05-11T15:52:44.027Z,20.23
2018-05-11T15:55:14.576Z,18.20
2018-05-11T15:57:44.361Z,19.87
2018-05-11T16:00:14.927Z,18.63
2018-05-11T16:02:45.267Z,18.63
2018-05-11T16:05:15.032Z,20.13
2018-05-11T16:07:45.530Z,19.27
2018-05-11T16:10:15.315Z,19.50
2018-05-11T16:12:45.068Z,20.30
2018-05-11T16:15:15.735Z,19.77
2018-05-11T16:17:45.596Z,19.50
2018-05-11T16:20:15.558Z,19.63
2018-05-11T16:22:45.316Z,21.23
2018-05-11T16:25:15.084Z,20.13
2018-05-11T16:27:44.861Z,21.60
2018-05-11T16:30:15.932Z,22.30
2018-05-11T16:32:45.683Z,22.70
2018-05-11T16:35:16.400Z,21.80
2018-05-11T16:37:46.177Z,20.57
2018-05-11T16:40:15.976Z,24.47
2018-05-11T16:42:46.516Z,25.10
2018-05-11T16:45:17.040Z,24.70
2018-05-11T16:47:47.560Z,25.40
2018-05-11T16:50:18.084Z,24.20
2018-05-11T16:52:49.626Z,25.63
2018-05-11T16:55:19.444Z,22.50
2018-05-11T16:57:49.211Z,23.90
2018-05-11T17:00:18.954Z,24.83
2018-05-11T17:02:48.695Z,28.70
2018-05-11T17:05:19.198Z,27.43
2018-05-11T17:07:48.958Z,31.20
2018-05-11T17:10:18.687Z,33.47
2018-05-11T17:12:48.434Z,37.47
2018-05-11T17:15:18.173Z,37.27
2018-05-11T17:17:47.916Z,34.60
2018-05-11T17:20:18.458Z,35.17
2018-05-11T17:22:48.882Z,33.40
2018-05-11T17:25:18.884Z,33.20
2018-05-11T17:27:48.753Z,31.80
2018-05-11T17:30:19.297Z,35.10
2018-05-11T17:32:49.250Z,33.97
2018-05-11T17:35:19.072Z,33.03
2018-05-11T17:37:48.819Z,30.10
2018-05-11T17:40:19.446Z,31.80
2018-05-11T17:42:49.968Z,30.17
2018-05-11T17:45:19.742Z,32.27
2018-05-11T17:47:49.464Z,28.30
2018-05-11T17:50:19.225Z,29.17
2018-05-11T17:52:49.758Z,32.47
2018-05-11T17:55:19.481Z,32.13
2018-05-11T17:57:49.214Z,34.37
2018-05-11T18:00:18.977Z,30.57
2018-05-11T18:02:49.496Z,30.40
2018-05-11T18:05:20.021Z,30.77
2018-05-11T18:07:50.537Z,29.63
2018-05-11T18:10:20.289Z,29.80
2018-05-11T18:12:50.120Z,29.60
2018-05-11T18:15:20.712Z,27.80
2018-05-11T18:17:51.225Z,27.93
2018-05-11T18:20:21.004Z,27.90
2018-05-11T18:22:50.764Z,28.27
2018-05-11T18:25:21.268Z,29.17
2018-05-11T18:27:51.008Z,28.43
2018-05-11T18:30:21.542Z,26.80
2018-05-11T18:32:51.286Z,27.10
2018-05-11T18:35:21.068Z,28.40
2018-05-11T18:37:51.622Z,26.53
2018-05-11T18:40:21.375Z,27.13
2018-05-11T18:42:51.926Z,27.00
2018-05-11T18:45:22.527Z,27.70
2018-05-11T18:47:52.266Z,26.40
2018-05-11T18:50:22.776Z,24.93
2018-05-11T18:52:52.613Z,27.37
2018-05-11T18:55:22.423Z,26.10
2018-05-11T18:57:52.920Z,26.17
2018-05-11T19:00:22.732Z,26.10
2018-05-11T19:02:52.432Z,25.50
2018-05-11T19:05:22.160Z,26.07
2018-05-11T19:07:51.895Z,24.30
2018-05-11T19:10:21.664Z,24.30
2018-05-11T19:12:51.463Z,25.20
2018-05-11T19:15:21.222Z,25.13
2018-05-11T19:17:51.748Z,24.80
2018-05-11T19:20:22.281Z,25.07
2018-05-11T19:22:52.818Z,24.70
2018-05-11T19:25:22.578Z,22.70
2018-05-11T19:27:52.348Z,21.90
2018-05-11T19:30:22.119Z,22.33
2018-05-11T19:32:51.888Z,22.13
2018-05-11T19:35:21.865Z,22.50
2018-05-11T19:37:52.379Z,21.90
2018-05-11T19:40:22.149Z,21.87
2018-05-11T19:42:51.903Z,22.03
2018-05-11T19:45:21.658Z,18.97
2018-05-11T19:47:51.392Z,20.80
2018-05-11T19:50:21.126Z,20.00
2018-05-11T19:52:50.886Z,22.00
2018-05-11T19:55:20.632Z,18.80
2018-05-11T19:57:50.381Z,21.50
2018-05-11T20:00:21.078Z,20.03
2018-05-11T20:02:50.824Z,21.13
2018-05-11T20:05:21.363Z,22.23
2018-05-11T20:07:51.145Z,21.70
2018-05-11T20:10:20.882Z,21.83
2018-05-11T20:12:51.371Z,21.67
2018-05-11T20:15:21.131Z,21.93
2018-05-11T20:17:50.856Z,21.57
2018-05-11T20:20:20.592Z,21.47
2018-05-11T20:22:50.366Z,21.20
2018-05-11T20:25:20.084Z,20.90
2018-05-11T20:27:49.809Z,20.50
2018-05-11T20:30:19.549Z,20.10
2018-05-11T20:32:49.564Z,20.30
2018-05-11T20:35:19.331Z,18.83
2018-05-11T20:37:49.112Z,18.67
2018-05-11T20:40:19.621Z,19.47
2018-05-11T20:42:49.364Z,18.77
2018-05-11T20:45:19.886Z,18.20
2018-05-11T20:47:50.437Z,17.57
2018-05-11T20:50:20.380Z,16.10
2018-05-11T20:52:50.101Z,17.87
2018-05-11T20:55:19.841Z,18.33
2018-05-11T20:57:50.437Z,16.67
2018-05-11T21:00:20.357Z,15.27
2018-05-11T21:02:50.102Z,15.60
2018-05-11T21:05:20.636Z,16.87
2018-05-11T21:07:51.163Z,16.33
2018-05-11T21:10:21.663Z,15.87
2018-05-11T21:12:51.427Z,15.90
2018-05-11T21:15:21.163Z,16.90
2018-05-11T21:17:50.904Z,13.87
2018-05-11T21:20:20.655Z,14.60
2018-05-11T21:22:50.425Z,14.93
2018-05-11T21:25:20.260Z,14.70
2018-05-11T21:27:50.812Z,16.40
2018-05-11T21:30:20.570Z,15.70
2018-05-11T21:32:50.320Z,14.90
2018-05-11T21:35:20.870Z,14.70
2018-05-11T21:37:50.603Z,15.07
2018-05-11T21:40:20.335Z,15.13
2018-05-11T21:42:50.060Z,15.60
2018-05-11T21:45:21.550Z,15.10
2018-05-11T21:47:51.348Z,14.93
2018-05-11T21:50:21.091Z,16.40
2018-05-11T21:52:50.833Z,15.90
2018-05-11T21:55:20.702Z,17.30
2018-05-11T21:57:50.417Z,16.40
2018-05-11T22:00:20.186Z,16.57
2018-05-11T22:02:50.742Z,15.60
2018-05-11T22:05:20.507Z,16.00
2018-05-11T22:07:50.270Z,15.27
2018-05-11T22:10:20.008Z,15.73
2018-05-11T22:12:49.729Z,16.00
2018-05-11T22:15:19.642Z,16.03
2018-05-11T22:17:49.387Z,17.27
2018-05-11T22:20:19.915Z,15.67
2018-05-11T22:22:50.454Z,15.40
2018-05-11T22:25:20.232Z,14.93
2018-05-11T22:27:50.068Z,15.47
2018-05-11T22:30:20.616Z,15.07
2018-05-11T22:32:50.412Z,15.80
2018-05-11T22:35:20.148Z,14.63
2018-05-11T22:37:49.931Z,16.13
2018-05-11T22:40:19.763Z,14.90
2018-05-11T22:42:49.487Z,17.80
2018-05-11T22:45:19.240Z,16.10
2018-05-11T22:47:48.982Z,17.73
2018-05-11T22:50:18.770Z,17.80
2018-05-11T22:52:49.495Z,16.63
2018-05-11T22:55:19.246Z,15.97
2018-05-11T22:57:49.986Z,16.20
2018-05-11T23:00:36.480Z,16.90
2018-05-11T23:03:06.213Z,17.17
2018-05-11T23:05:35.982Z,16.90
2018-05-11T23:08:06.478Z,16.50
2018-05-11T23:10:36.226Z,15.97
2018-05-11T23:13:06.745Z,17.00
2018-05-11T23:15:37.238Z,18.93
2018-05-11T23:18:07.015Z,17.97
2018-05-11T23:20:36.752Z,18.43
2018-05-11T23:23:06.510Z,17.63
2018-05-11T23:25:37.016Z,16.70
2018-05-11T23:28:06.765Z,18.03
2018-05-11T23:30:36.542Z,18.10
2018-05-11T23:33:06.276Z,18.07
2018-05-11T23:35:36.772Z,16.97
2018-05-11T23:38:06.509Z,18.27
2018-05-11T23:40:36.989Z,17.37
2018-05-11T23:43:06.753Z,17.83
2018-05-11T23:45:37.275Z,18.83
2018-05-11T23:48:07.787Z,17.90
2018-05-11T23:50:37.539Z,16.77
2018-05-11T23:53:07.312Z,16.83
2018-05-11T23:55:38.174Z,16.77
2018-05-11T23:58:07.939Z,17.33
